Time;durP1;ratioP1;P1;durP2;ratioP2;P2;SDS_P1;SDS_P2;PMS_P1;PMS_P2;Temp;Humidity;BMP_temperature;BMP_pressure;BME280_temperature;BME280_humidity;BME280_pressure;Samples;Min_cycle;Max_cycle;Signal;HPM_P1;HPM_P2
2023/09/22 00:02:08;;;;;;;3.20;2.13;;;14.20;99.90;;;;;;5003513;28;20444;-72
2023/09/22 00:04:35;;;;;;;2.47;2.05;;;14.10;99.90;;;;;;5002373;28;20954;-72
2023/09/22 00:07:02;;;;;;;2.30;2.10;;;14.10;99.90;;;;;;5007312;28;20628;-73
2023/09/22 00:09:28;;;;;;;3.40;2.80;;;14.10;99.90;;;;;;5001944;28;20874;-73
2023/09/22 00:11:56;;;;;;;2.95;2.60;;;14.10;99.90;;;;;;5012274;28;20407;-73
2023/09/22 00:14:23;;;;;;;2.90;2.13;;;14.10;99.90;;;;;;5002520;28;20540;-73
2023/09/22 00:16:49;;;;;;;3.38;2.30;;;14.00;99.90;;;;;;4999648;28;20889;-73
2023/09/22 00:19:17;;;;;;;2.50;1.90;;;14.00;99.90;;;;;;5006096;28;20440;-73
2023/09/22 00:21:44;;;;;;;2.40;2.20;;;14.00;99.90;;;;;;5002573;28;20527;-72
2023/09/22 00:24:11;;;;;;;2.70;1.90;;;13.90;99.90;;;;;;5003047;28;20442;-74
2023/09/22 00:26:37;;;;;;;2.60;2.10;;;13.90;99.90;;;;;;5005953;28;20519;-73
2023/09/22 00:29:04;;;;;;;2.58;1.77;;;13.90;99.90;;;;;;5001418;28;20946;-73
2023/09/22 00:31:31;;;;;;;2.50;1.80;;;13.90;99.90;;;;;;5002226;28;20434;-71
2023/09/22 00:33:58;;;;;;;4.20;1.88;;;13.80;99.90;;;;;;5003355;28;20918;-73
2023/09/22 00:36:26;;;;;;;2.70;1.90;;;13.80;99.90;;;;;;5002082;28;20455;-72
2023/09/22 00:38:53;;;;;;;1.70;1.30;;;13.80;99.90;;;;;;5001138;28;20428;-73
2023/09/22 00:41:19;;;;;;;2.30;1.20;;;13.80;99.90;;;;;;5001771;28;20440;-73
2023/09/22 00:43:46;;;;;;;3.38;1.70;;;13.70;99.90;;;;;;5003303;28;20504;-72
2023/09/22 00:46:13;;;;;;;2.60;1.90;;;13.70;99.90;;;;;;4993200;28;20446;-72
2023/09/22 00:48:42;;;;;;;2.50;1.77;;;13.70;99.90;;;;;;5002283;28;20524;-72
2023/09/22 00:51:09;;;;;;;2.90;1.33;;;13.70;99.90;;;;;;5001435;28;20839;-72
2023/09/22 00:53:39;;;;;;;2.30;1.38;;;13.70;99.90;;;;;;5003256;28;20431;-72
2023/09/22 00:56:07;;;;;;;1.80;1.42;;;13.60;99.90;;;;;;5013349;28;20446;-73
2023/09/22 00:58:34;;;;;;;2.80;1.67;;;13.60;99.90;;;;;;5010114;28;20453;-72
2023/09/22 01:01:01;;;;;;;2.13;1.40;;;13.60;99.90;;;;;;5008889;28;20463;-71
2023/09/22 01:03:29;;;;;;;2.53;1.40;;;13.50;99.90;;;;;;5008617;28;20443;-72
2023/09/22 01:05:56;;;;;;;1.80;1.40;;;13.50;99.90;;;;;;5011699;28;20444;-72
2023/09/22 01:08:23;;;;;;;2.07;1.50;;;13.50;99.90;;;;;;5006635;28;20527;-74
2023/09/22 01:10:51;;;;;;;1.80;1.40;;;13.40;99.90;;;;;;5008658;28;21979;-71
2023/09/22 01:13:17;;;;;;;1.80;1.70;;;13.40;99.90;;;;;;5006238;28;20775;-72
2023/09/22 01:15:44;;;;;;;3.60;2.00;;;13.40;99.90;;;;;;5007029;28;20413;-72
2023/09/22 01:18:13;;;;;;;3.28;2.00;;;13.40;99.90;;;;;;5011586;28;20468;-72
2023/09/22 01:20:42;;;;;;;1.83;1.58;;;13.30;99.90;;;;;;5022501;28;20530;-72
2023/09/22 01:23:12;;;;;;;2.95;2.10;;;13.30;99.90;;;;;;5016460;28;20890;-72
2023/09/22 01:25:40;;;;;;;2.83;1.75;;;13.20;99.90;;;;;;5016570;28;20504;-72
2023/09/22 01:28:07;;;;;;;2.50;2.20;;;13.20;99.90;;;;;;5005544;28;20696;-72
2023/09/22 01:30:34;;;;;;;2.60;2.20;;;13.20;99.90;;;;;;5012301;28;20407;-72
2023/09/22 01:33:03;;;;;;;4.32;2.50;;;13.20;99.90;;;;;;5004764;28;20440;-74
2023/09/22 01:35:32;;;;;;;2.90;1.83;;;13.20;99.90;;;;;;5013571;28;20504;-73
2023/09/22 01:38:09;;;;;;;2.45;1.80;;;13.30;99.90;;;;;;5014304;28;20439;-72
2023/09/22 01:40:37;;;;;;;2.40;1.80;;;13.30;99.90;;;;;;5006737;28;20514;-72
2023/09/22 01:43:04;;;;;;;2.58;2.08;;;13.30;99.90;;;;;;5007485;28;20432;-73
2023/09/22 01:45:31;;;;;;;1.95;1.73;;;13.30;99.90;;;;;;5017168;28;20439;-74
2023/09/22 01:47:57;;;;;;;2.55;2.03;;;13.30;99.90;;;;;;5011604;28;20436;-73
2023/09/22 01:50:25;;;;;;;2.00;1.40;;;13.30;99.90;;;;;;5008300;28;20456;-72
2023/09/22 01:52:52;;;;;;;2.90;1.90;;;13.20;99.90;;;;;;5021767;28;20854;-72
2023/09/22 01:55:19;;;;;;;2.88;1.80;;;13.20;99.90;;;;;;5012137;28;20512;-71
2023/09/22 01:57:49;;;;;;;2.30;1.90;;;13.20;99.90;;;;;;5016038;28;20496;-73
2023/09/22 02:00:18;;;;;;;2.35;1.80;;;13.10;99.90;;;;;;5010012;28;20440;-71
2023/09/22 02:02:45;;;;;;;2.45;2.00;;;13.10;99.90;;;;;;5012988;28;20435;-72
2023/09/22 02:05:14;;;;;;;3.13;1.90;;;13.10;99.90;;;;;;5013313;28;20441;-73
2023/09/22 02:07:41;;;;;;;2.27;2.07;;;13.20;99.90;;;;;;5004773;28;20818;-74
2023/09/22 02:10:10;;;;;;;2.70;2.17;;;13.10;99.90;;;;;;5009226;28;20416;-73
2023/09/22 02:12:37;;;;;;;2.10;1.90;;;13.20;99.90;;;;;;5006998;28;20493;-71
2023/09/22 02:15:09;;;;;;;2.30;2.05;;;13.20;99.90;;;;;;5011619;28;20428;-71
2023/09/22 02:17:36;;;;;;;2.20;2.00;;;13.10;99.90;;;;;;5012465;28;20793;-73
2023/09/22 02:20:07;;;;;;;2.93;2.10;;;13.10;99.90;;;;;;5015282;28;20503;-70
2023/09/22 02:22:35;;;;;;;2.72;2.13;;;13.10;99.90;;;;;;5010345;28;20562;-72
2023/09/22 02:25:02;;;;;;;2.28;2.00;;;13.10;99.90;;;;;;5009274;28;20532;-71
2023/09/22 02:27:28;;;;;;;3.60;1.90;;;13.10;99.90;;;;;;5017122;28;20872;-71
2023/09/22 02:29:55;;;;;;;2.17;1.55;;;13.10;99.90;;;;;;5003881;28;20432;-71
2023/09/22 02:32:23;;;;;;;2.53;1.70;;;13.00;99.90;;;;;;5012993;28;20432;-72
2023/09/22 02:34:50;;;;;;;3.00;2.00;;;13.00;99.90;;;;;;5004075;28;20444;-71
2023/09/22 02:37:17;;;;;;;2.42;1.50;;;13.10;99.90;;;;;;5001755;28;20468;-71
2023/09/22 02:39:44;;;;;;;2.55;1.63;;;13.00;99.90;;;;;;5006437;28;20440;-71
2023/09/22 02:42:11;;;;;;;2.60;1.60;;;13.00;99.90;;;;;;5006532;28;20466;-72
2023/09/22 02:44:38;;;;;;;3.50;1.70;;;13.00;99.90;;;;;;5011422;28;20440;-73
2023/09/22 02:47:05;;;;;;;3.33;1.98;;;13.00;99.90;;;;;;5005314;28;20815;-73
2023/09/22 02:49:33;;;;;;;1.80;1.55;;;13.00;99.90;;;;;;5007933;28;20420;-73
2023/09/22 02:51:59;;;;;;;2.58;1.60;;;13.00;99.90;;;;;;5018696;28;20420;-73
2023/09/22 02:54:26;;;;;;;2.40;1.60;;;13.00;99.90;;;;;;5006909;28;20760;-73
2023/09/22 02:56:53;;;;;;;3.40;1.80;;;13.00;99.90;;;;;;5012898;28;20453;-73
2023/09/22 02:59:20;;;;;;;2.58;1.70;;;13.00;99.90;;;;;;5008102;28;20765;-73
2023/09/22 03:01:46;;;;;;;2.60;1.67;;;13.00;99.90;;;;;;5012318;28;20498;-73
2023/09/22 03:04:13;;;;;;;2.33;1.50;;;13.00;99.90;;;;;;5008196;28;20434;-73
2023/09/22 03:06:42;;;;;;;3.45;1.50;;;13.00;99.90;;;;;;5009838;28;20487;-73
2023/09/22 03:09:10;;;;;;;2.80;1.50;;;13.00;99.90;;;;;;5010056;28;20491;-73
2023/09/22 03:11:37;;;;;;;3.88;1.70;;;12.90;99.90;;;;;;5003596;28;20786;-71
2023/09/22 03:14:04;;;;;;;2.00;1.40;;;12.90;99.90;;;;;;5007144;28;20416;-72
2023/09/22 03:16:31;;;;;;;1.85;1.23;;;12.90;99.90;;;;;;5011325;28;20450;-72
2023/09/22 03:18:58;;;;;;;3.30;1.40;;;12.90;99.90;;;;;;5021298;28;20451;-73
2023/09/22 03:21:26;;;;;;;2.05;1.40;;;12.80;99.90;;;;;;5008611;28;20417;-71
2023/09/22 03:23:54;;;;;;;2.75;1.40;;;12.90;99.90;;;;;;5004045;28;20440;-71
2023/09/22 03:26:22;;;;;;;2.70;1.70;;;12.80;99.90;;;;;;5003588;28;20440;-72
2023/09/22 03:28:50;;;;;;;3.63;1.60;;;12.80;99.90;;;;;;5005782;28;20436;-71
2023/09/22 03:31:18;;;;;;;3.15;1.70;;;12.80;99.90;;;;;;5003745;28;20782;-73
2023/09/22 03:33:46;;;;;;;2.97;1.67;;;12.90;99.90;;;;;;5011002;28;20530;-72
2023/09/22 03:36:14;;;;;;;3.30;1.45;;;12.90;99.90;;;;;;5010433;28;20977;-72
2023/09/22 03:38:42;;;;;;;1.85;1.42;;;12.90;99.90;;;;;;5006061;28;20494;-73
2023/09/22 03:41:10;;;;;;;2.85;1.40;;;12.90;99.90;;;;;;5005314;28;20443;-72
2023/09/22 03:43:36;;;;;;;2.95;1.50;;;13.00;99.90;;;;;;5003261;28;20535;-73
2023/09/22 03:46:03;;;;;;;2.70;1.70;;;12.90;99.90;;;;;;5012790;28;20447;-73
2023/09/22 03:48:30;;;;;;;2.92;1.60;;;13.00;99.90;;;;;;5015099;28;20550;-73
2023/09/22 03:50:57;;;;;;;2.88;1.30;;;13.00;99.90;;;;;;5006197;28;20448;-72
2023/09/22 03:53:24;;;;;;;2.45;1.38;;;13.00;99.90;;;;;;5015671;28;20444;-73
2023/09/22 03:55:51;;;;;;;2.20;1.30;;;13.00;99.90;;;;;;4998874;28;20760;-71
2023/09/22 03:58:20;;;;;;;4.70;1.70;;;13.00;99.90;;;;;;5008123;28;20813;-71
2023/09/22 04:00:47;;;;;;;2.33;1.40;;;13.00;99.90;;;;;;5007709;28;20434;-72
2023/09/22 04:03:15;;;;;;;1.80;1.50;;;13.00;99.90;;;;;;5011979;28;20514;-73
2023/09/22 04:05:42;;;;;;;2.40;1.60;;;13.00;99.90;;;;;;5009351;28;20417;-73
2023/09/22 04:08:08;;;;;;;2.33;1.30;;;13.00;99.90;;;;;;5011648;28;20424;-73
2023/09/22 04:10:35;;;;;;;2.30;1.60;;;13.00;99.90;;;;;;5001451;28;20879;-73
2023/09/22 04:13:02;;;;;;;3.30;1.80;;;13.00;99.90;;;;;;5004159;28;20463;-72
2023/09/22 04:15:30;;;;;;;1.93;1.73;;;13.00;99.90;;;;;;5007652;28;20456;-73
2023/09/22 04:17:57;;;;;;;3.30;1.70;;;13.00;99.90;;;;;;5003971;28;20498;-74
2023/09/22 04:20:32;;;;;;;2.60;1.65;;;13.00;99.90;;;;;;5000723;28;20443;-74
2023/09/22 04:22:59;;;;;;;3.00;1.65;;;13.00;99.90;;;;;;5004752;28;20428;-73
2023/09/22 04:25:31;;;;;;;2.97;1.60;;;13.10;99.90;;;;;;5004892;28;20443;-73
2023/09/22 04:28:07;;;;;;;3.67;1.50;;;13.10;99.90;;;;;;5006875;28;20428;-73
2023/09/22 04:30:36;;;;;;;3.40;1.90;;;13.10;99.90;;;;;;5007462;28;20827;-74
2023/09/22 04:33:03;;;;;;;2.33;1.75;;;13.10;99.90;;;;;;5018005;28;20504;-76
2023/09/22 04:35:32;;;;;;;2.43;1.67;;;13.20;99.90;;;;;;5017228;28;20436;-75
2023/09/22 04:37:59;;;;;;;3.08;1.88;;;13.20;99.90;;;;;;5005416;28;20807;-74
2023/09/22 04:40:29;;;;;;;3.60;1.70;;;13.20;99.90;;;;;;5008498;28;20445;-74
2023/09/22 04:42:56;;;;;;;2.40;1.50;;;13.20;99.90;;;;;;5010352;28;20433;-74
2023/09/22 04:45:23;;;;;;;1.80;1.55;;;13.20;99.90;;;;;;5021128;28;20417;-74
2023/09/22 04:47:52;;;;;;;3.78;2.00;;;13.20;99.90;;;;;;5009189;28;20436;-74
2023/09/22 04:50:19;;;;;;;4.32;1.80;;;13.30;99.90;;;;;;5001792;28;20434;-74
2023/09/22 04:52:47;;;;;;;3.63;1.90;;;13.30;99.90;;;;;;5005110;28;20440;-74
2023/09/22 04:55:16;;;;;;;3.00;1.70;;;13.20;99.90;;;;;;5021042;28;20424;-74
2023/09/22 04:57:45;;;;;;;4.45;1.85;;;13.20;99.90;;;;;;4999244;28;20639;-74
2023/09/22 05:00:16;;;;;;;3.78;1.88;;;13.30;99.90;;;;;;4997315;28;20451;-74
2023/09/22 05:02:43;;;;;;;3.10;1.70;;;13.30;99.90;;;;;;4985242;28;20430;-73
2023/09/22 05:05:11;;;;;;;3.30;1.80;;;13.30;99.90;;;;;;4991737;28;20475;-74
2023/09/22 05:07:38;;;;;;;3.70;1.73;;;13.30;99.90;;;;;;4987048;28;20465;-73
2023/09/22 05:10:06;;;;;;;3.40;1.60;;;13.30;99.90;;;;;;4987314;28;20513;-74
2023/09/22 05:12:33;;;;;;;3.08;1.50;;;13.30;99.90;;;;;;4995201;28;20899;-74
2023/09/22 05:15:00;;;;;;;3.60;1.90;;;13.30;99.90;;;;;;4995876;28;20452;-74
2023/09/22 05:17:28;;;;;;;4.15;1.80;;;13.20;99.90;;;;;;4988003;28;20540;-75
2023/09/22 05:19:54;;;;;;;2.95;1.83;;;13.20;99.90;;;;;;4988033;28;20506;-74
2023/09/22 05:22:22;;;;;;;3.35;2.13;;;13.20;99.90;;;;;;4992632;28;20429;-75
2023/09/22 05:24:49;;;;;;;3.60;2.00;;;13.10;99.90;;;;;;4993797;28;20523;-74
2023/09/22 05:27:16;;;;;;;4.03;2.00;;;13.10;99.90;;;;;;4989611;28;20455;-74
2023/09/22 05:29:43;;;;;;;3.20;1.80;;;13.10;99.90;;;;;;4989047;28;20464;-74
2023/09/22 05:32:10;;;;;;;2.17;1.80;;;13.00;99.90;;;;;;4982811;28;21009;-74
2023/09/22 05:34:39;;;;;;;3.28;2.10;;;13.00;99.90;;;;;;4997804;28;20484;-74
2023/09/22 05:37:06;;;;;;;2.90;2.10;;;13.00;99.90;;;;;;4996318;28;20594;-74
2023/09/22 05:39:34;;;;;;;2.80;1.73;;;13.00;99.90;;;;;;4998124;28;20427;-74
2023/09/22 05:42:01;;;;;;;2.50;1.53;;;13.00;99.90;;;;;;5000067;28;20471;-74
2023/09/22 05:44:29;;;;;;;2.40;1.60;;;12.90;99.90;;;;;;4988852;28;20445;-73
2023/09/22 05:46:56;;;;;;;1.98;1.50;;;12.90;99.90;;;;;;4986205;28;20512;-73
2023/09/22 05:49:23;;;;;;;2.70;1.80;;;13.00;99.90;;;;;;5074041;22;20460;-68
2023/09/22 05:51:51;;;;;;;3.72;2.10;;;13.00;99.90;;;;;;5069190;28;20431;-69
2023/09/22 05:54:17;;;;;;;3.78;1.70;;;13.00;99.90;;;;;;5071481;28;20477;-69
2023/09/22 05:56:46;;;;;;;3.47;1.73;;;13.00;99.90;;;;;;5069696;28;20424;-69
2023/09/22 05:59:13;;;;;;;2.10;1.70;;;13.00;99.90;;;;;;5068597;28;20705;-69
2023/09/22 06:01:40;;;;;;;3.30;1.55;;;13.10;99.90;;;;;;5069987;28;20451;-68
2023/09/22 06:04:09;;;;;;;3.60;1.58;;;13.10;99.90;;;;;;5053086;28;20423;-68
2023/09/22 06:06:36;;;;;;;2.58;1.70;;;13.10;99.90;;;;;;5067155;28;20831;-69
2023/09/22 06:09:09;;;;;;;2.40;1.63;;;13.10;99.90;;;;;;5063254;28;20436;-69
2023/09/22 06:11:37;;;;;;;3.70;1.60;;;13.10;99.90;;;;;;5066858;28;20426;-69
2023/09/22 06:14:06;;;;;;;3.20;1.50;;;13.10;99.90;;;;;;5058849;28;20432;-69
2023/09/22 06:16:32;;;;;;;3.47;1.70;;;13.20;99.90;;;;;;5052249;28;20436;-69
2023/09/22 06:18:59;;;;;;;2.30;1.50;;;13.20;99.90;;;;;;5060627;28;20438;-69
2023/09/22 06:21:29;;;;;;;2.38;1.40;;;13.20;99.90;;;;;;5059160;28;20433;-70
2023/09/22 06:23:57;;;;;;;2.80;1.50;;;13.30;99.90;;;;;;5072424;28;20924;-69
2023/09/22 06:26:23;;;;;;;2.33;1.40;;;13.30;99.90;;;;;;5057943;28;20421;-69
2023/09/22 06:28:50;;;;;;;2.33;1.58;;;13.30;99.90;;;;;;5063747;28;20427;-69
2023/09/22 06:31:18;;;;;;;3.03;1.50;;;13.30;99.90;;;;;;5058337;28;20444;-70
2023/09/22 06:33:45;;;;;;;3.10;1.40;;;13.30;99.90;;;;;;5060427;28;20425;-70
2023/09/22 06:36:12;;;;;;;3.55;1.80;;;13.30;99.90;;;;;;5059099;28;20428;-69
2023/09/22 06:38:39;;;;;;;2.67;1.30;;;13.30;99.90;;;;;;5066089;28;20453;-69
2023/09/22 06:41:06;;;;;;;2.50;1.30;;;13.30;99.90;;;;;;5066984;28;20434;-69
2023/09/22 06:43:36;;;;;;;2.07;1.40;;;13.40;99.90;;;;;;5062572;28;20502;-68
2023/09/22 06:46:04;;;;;;;2.60;1.35;;;13.40;99.90;;;;;;5072411;28;20436;-70
2023/09/22 06:48:32;;;;;;;2.63;1.10;;;13.40;99.90;;;;;;5061951;28;20807;-69
2023/09/22 06:50:59;;;;;;;2.40;1.30;;;13.50;99.90;;;;;;5070154;28;20448;-70
2023/09/22 06:53:27;;;;;;;4.22;1.70;;;13.60;99.90;;;;;;5068111;28;20911;-69
2023/09/22 06:56:06;;;;;;;1.80;1.20;;;13.70;99.90;;;;;;5064470;28;20487;-69
2023/09/22 06:58:33;;;;;;;2.22;1.08;;;13.90;99.90;;;;;;5072577;28;20827;-70
2023/09/22 07:01:10;;;;;;;3.60;0.93;;;14.10;99.90;;;;;;5067447;28;20431;-69
2023/09/22 07:03:38;;;;;;;1.75;1.20;;;14.20;99.90;;;;;;5061848;28;20538;-69
2023/09/22 07:06:07;;;;;;;4.05;1.40;;;14.30;99.90;;;;;;5067641;28;20999;-70
2023/09/22 07:08:34;;;;;;;1.90;1.30;;;14.30;99.90;;;;;;5062180;28;20513;-69
2023/09/22 07:11:02;;;;;;;2.65;1.20;;;14.30;99.90;;;;;;5065572;28;20438;-70
2023/09/22 07:13:29;;;;;;;3.13;1.77;;;14.30;99.90;;;;;;5068378;28;20613;-70
2023/09/22 07:15:57;;;;;;;1.70;1.20;;;14.30;99.90;;;;;;5061647;28;20852;-69
2023/09/22 07:18:25;;;;;;;3.47;1.60;;;14.30;99.90;;;;;;5055100;28;20424;-70
2023/09/22 07:20:53;;;;;;;3.35;1.98;;;14.30;99.90;;;;;;5059226;28;20791;-69
2023/09/22 07:23:20;;;;;;;2.13;1.45;;;14.30;99.90;;;;;;5066901;28;20428;-69
2023/09/22 07:25:58;;;;;;;3.20;1.40;;;14.30;99.90;;;;;;5060725;28;20435;-70
2023/09/22 07:28:25;;;;;;;3.30;1.73;;;14.30;99.90;;;;;;5061794;28;20429;-69
2023/09/22 07:30:52;;;;;;;2.50;1.60;;;14.30;99.90;;;;;;5064618;28;20435;-69
2023/09/22 07:33:18;;;;;;;2.80;1.55;;;14.30;99.90;;;;;;5067295;28;20458;-68
2023/09/22 07:35:48;;;;;;;2.70;1.70;;;14.30;99.90;;;;;;5087995;28;20431;-70
2023/09/22 07:38:16;;;;;;;4.03;1.40;;;14.40;99.90;;;;;;5077521;28;20779;-70
2023/09/22 07:40:44;;;;;;;3.47;1.58;;;14.40;99.90;;;;;;5074533;28;20432;-70
2023/09/22 07:43:11;;;;;;;2.63;1.60;;;14.40;99.90;;;;;;5064866;28;21178;-70
2023/09/22 07:45:37;;;;;;;2.30;1.30;;;14.40;99.90;;;;;;5069088;28;20478;-71
2023/09/22 07:48:05;;;;;;;2.30;1.40;;;14.50;99.90;;;;;;5067950;28;20438;-69
2023/09/22 07:50:34;;;;;;;2.50;1.00;;;14.50;99.90;;;;;;5069543;28;20420;-71
2023/09/22 07:53:01;;;;;;;2.00;1.30;;;14.60;99.90;;;;;;5069095;28;20480;-69
2023/09/22 07:55:29;;;;;;;2.28;1.17;;;14.60;99.90;;;;;;5069338;28;20415;-70
2023/09/22 07:57:56;;;;;;;2.25;1.30;;;14.70;99.90;;;;;;5062875;28;20427;-70
2023/09/22 08:00:26;;;;;;;4.10;1.27;;;14.70;99.90;;;;;;5074126;28;20403;-70
2023/09/22 08:02:53;;;;;;;2.67;1.30;;;14.80;99.90;;;;;;5066451;28;20458;-70
2023/09/22 08:05:20;;;;;;;1.80;1.33;;;14.90;99.90;;;;;;5068473;28;20424;-69
2023/09/22 08:07:49;;;;;;;3.00;2.00;;;14.90;99.90;;;;;;5074996;28;20547;-70
2023/09/22 08:10:17;;;;;;;2.50;1.20;;;15.10;99.90;;;;;;5071804;28;20443;-71
2023/09/22 08:12:45;;;;;;;2.78;1.20;;;15.20;99.90;;;;;;5062830;28;20461;-70
2023/09/22 08:15:14;;;;;;;2.10;1.00;;;15.40;99.90;;;;;;5055618;28;20418;-72
2023/09/22 08:17:43;;;;;;;1.93;1.03;;;15.50;99.90;;;;;;5055782;28;20416;-70
2023/09/22 08:20:12;;;;;;;1.50;0.90;;;15.70;99.90;;;;;;5060906;28;20435;-70
2023/09/22 08:22:39;;;;;;;1.53;0.80;;;15.80;99.90;;;;;;5071205;28;20470;-70
2023/09/22 08:25:09;;;;;;;3.37;1.00;;;15.90;98.90;;;;;;5063514;28;20433;-70
2023/09/22 08:27:35;;;;;;;2.30;1.05;;;16.00;99.40;;;;;;5064524;28;20485;-70
2023/09/22 08:30:09;;;;;;;1.30;0.80;;;16.10;99.10;;;;;;5055675;28;20514;-71
2023/09/22 08:32:37;;;;;;;2.38;1.40;;;16.40;97.00;;;;;;5070239;28;20522;-71
2023/09/22 08:35:05;;;;;;;3.50;0.90;;;16.60;95.90;;;;;;5065002;28;20407;-71
2023/09/22 08:37:33;;;;;;;4.35;1.20;;;16.70;94.60;;;;;;5073791;28;20418;-71
2023/09/22 08:40:00;;;;;;;2.05;1.25;;;16.80;94.20;;;;;;5068255;28;20526;-71
2023/09/22 08:42:27;;;;;;;1.92;0.90;;;16.90;94.00;;;;;;5056823;28;20455;-71
2023/09/22 08:44:56;;;;;;;2.10;1.10;;;17.00;93.30;;;;;;5052123;28;20938;-71
2023/09/22 08:47:24;;;;;;;3.00;0.80;;;17.10;93.70;;;;;;5059199;28;20427;-70
2023/09/22 08:49:51;;;;;;;2.30;0.90;;;17.40;92.90;;;;;;5070128;28;20423;-73
2023/09/22 08:52:20;;;;;;;3.20;1.10;;;17.50;91.00;;;;;;5064820;28;20467;-72
2023/09/22 08:54:47;;;;;;;1.67;0.77;;;17.50;90.80;;;;;;5060453;28;20427;-72
2023/09/22 08:57:15;;;;;;;2.00;1.08;;;17.50;90.90;;;;;;5070294;28;20437;-69
2023/09/22 08:59:43;;;;;;;2.10;0.90;;;17.50;91.30;;;;;;5065683;28;20497;-72
2023/09/22 09:02:11;;;;;;;2.25;1.02;;;17.60;90.80;;;;;;5060622;28;20412;-70
2023/09/22 09:04:40;;;;;;;1.80;0.80;;;17.70;90.60;;;;;;5058327;28;20466;-70
2023/09/22 09:07:07;;;;;;;2.83;1.00;;;17.90;89.80;;;;;;5060160;28;20802;-71
2023/09/22 09:09:44;;;;;;;3.60;1.10;;;18.00;88.20;;;;;;5051133;28;20433;-69
2023/09/22 09:12:12;;;;;;;2.88;0.70;;;18.10;84.80;;;;;;5057626;28;20415;-71
2023/09/22 09:14:40;;;;;;;2.30;1.40;;;18.30;82.90;;;;;;5054387;28;20977;-71
2023/09/22 09:17:19;;;;;;;2.58;0.80;;;18.30;84.70;;;;;;5062966;28;20982;-70
2023/09/22 09:19:49;;;;;;;2.20;0.70;;;18.40;83.90;;;;;;5064668;28;20469;-70
2023/09/22 09:22:16;;;;;;;1.50;0.70;;;18.30;82.80;;;;;;5062698;28;20508;-72
2023/09/22 09:24:43;;;;;;;1.53;0.67;;;18.20;81.90;;;;;;5060507;28;20500;-69
2023/09/22 09:27:18;;;;;;;2.90;1.00;;;18.10;82.30;;;;;;5059431;28;20419;-70
2023/09/22 09:29:46;;;;;;;1.85;0.90;;;18.00;82.60;;;;;;5055898;28;20487;-70
2023/09/22 09:32:23;;;;;;;1.40;0.80;;;18.10;82.70;;;;;;5056524;28;20814;-70
2023/09/22 09:34:51;;;;;;;1.40;0.82;;;18.20;79.70;;;;;;5063518;28;20482;-69
2023/09/22 09:37:19;;;;;;;2.20;0.70;;;18.10;75.40;;;;;;5059818;28;20436;-71
2023/09/22 09:39:48;;;;;;;1.20;0.70;;;18.00;75.40;;;;;;5068508;28;20452;-71
2023/09/22 09:42:17;;;;;;;1.63;0.80;;;17.90;74.20;;;;;;5067707;28;20406;-69
2023/09/22 09:44:49;;;;;;;1.65;0.93;;;17.70;75.60;;;;;;5067290;28;21011;-70
2023/09/22 09:47:22;;;;;;;2.38;0.80;;;17.60;75.90;;;;;;5072870;28;20529;-70
2023/09/22 09:49:52;;;;;;;2.47;0.80;;;17.40;75.30;;;;;;5056441;28;20413;-70
2023/09/22 09:52:25;;;;;;;1.50;0.90;;;17.30;78.10;;;;;;5065192;28;20496;-69
2023/09/22 09:55:01;;;;;;;2.85;0.88;;;17.20;77.60;;;;;;5065220;28;20444;-70
2023/09/22 09:57:30;;;;;;;2.90;0.90;;;17.10;78.60;;;;;;5059743;28;20439;-69
2023/09/22 09:59:58;;;;;;;2.10;1.20;;;17.10;79.70;;;;;;5069881;28;20417;-71
2023/09/22 10:02:26;;;;;;;2.70;1.00;;;17.00;80.80;;;;;;5059390;28;21064;-71
2023/09/22 10:04:56;;;;;;;4.00;1.00;;;17.00;79.30;;;;;;5065478;28;20956;-69
2023/09/22 10:07:24;;;;;;;2.88;0.80;;;17.10;77.20;;;;;;5056486;28;20413;-72
2023/09/22 10:09:50;;;;;;;2.13;0.98;;;17.30;76.00;;;;;;5059769;28;20438;-71
2023/09/22 10:12:17;;;;;;;2.00;0.90;;;17.30;76.00;;;;;;5062666;28;20439;-69
2023/09/22 10:14:46;;;;;;;2.50;1.10;;;17.40;77.30;;;;;;5065401;28;20722;-70
2023/09/22 10:17:21;;;;;;;2.72;0.80;;;17.60;77.20;;;;;;5066739;28;20878;-69
2023/09/22 10:19:48;;;;;;;2.50;0.80;;;18.00;77.20;;;;;;5064104;28;20429;-70
2023/09/22 10:22:16;;;;;;;2.00;0.80;;;18.10;74.80;;;;;;5061944;28;20424;-66
2023/09/22 10:24:43;;;;;;;1.83;1.00;;;18.00;74.70;;;;;;5071138;28;20562;-66
2023/09/22 10:27:14;;;;;;;1.98;0.80;;;18.00;74.20;;;;;;5062936;28;20898;-74
2023/09/22 10:29:51;;;;;;;2.00;1.10;;;17.90;74.20;;;;;;5064353;28;20415;-74
2023/09/22 10:32:23;;;;;;;3.00;1.20;;;17.80;77.30;;;;;;5070158;28;20426;-73
2023/09/22 10:34:51;;;;;;;2.80;1.30;;;17.80;74.90;;;;;;5057792;28;20986;-73
2023/09/22 10:37:20;;;;;;;2.10;1.00;;;17.80;76.00;;;;;;5060958;28;20922;-73
2023/09/22 10:39:56;;;;;;;3.10;1.30;;;17.70;76.30;;;;;;5067319;28;20423;-75
2023/09/22 10:42:24;;;;;;;2.90;1.40;;;17.70;76.10;;;;;;5062991;28;20427;-73
2023/09/22 10:45:02;;;;;;;2.30;1.00;;;17.70;77.50;;;;;;5058229;28;20432;-73
2023/09/22 10:47:39;;;;;;;1.77;1.00;;;17.80;75.00;;;;;;5062193;28;20485;-73
2023/09/22 10:50:14;;;;;;;1.73;1.00;;;17.80;73.90;;;;;;5068807;28;20412;-74
2023/09/22 10:52:50;;;;;;;1.40;0.60;;;17.80;74.70;;;;;;5060119;28;20754;-73
2023/09/22 10:55:24;;;;;;;1.75;0.80;;;17.70;71.90;;;;;;5064428;28;20510;-73
2023/09/22 10:57:51;;;;;;;1.60;0.90;;;17.80;71.50;;;;;;5063587;28;20435;-71
2023/09/22 11:00:19;;;;;;;2.63;0.90;;;17.90;72.10;;;;;;5063565;28;20427;-71
2023/09/22 11:02:46;;;;;;;2.40;0.90;;;18.30;72.60;;;;;;5067022;28;20912;-72
2023/09/22 11:05:13;;;;;;;2.40;0.90;;;18.70;71.20;;;;;;5054873;28;20459;-73
2023/09/22 11:07:41;;;;;;;1.58;0.80;;;19.10;68.20;;;;;;5059416;28;20451;-67
2023/09/22 11:10:17;;;;;;;1.80;0.80;;;19.30;67.30;;;;;;5055598;28;20936;-74
2023/09/22 11:12:48;;;;;;;2.13;1.02;;;19.30;65.20;;;;;;5064933;28;20405;-72
2023/09/22 11:15:15;;;;;;;2.25;0.80;;;19.50;62.40;;;;;;5057589;28;20438;-73
2023/09/22 11:17:46;;;;;;;4.03;0.80;;;19.60;62.60;;;;;;5069555;28;20418;-74
2023/09/22 11:20:18;;;;;;;1.83;0.90;;;19.70;62.80;;;;;;5065374;28;20439;-72
2023/09/22 11:22:45;;;;;;;2.15;0.75;;;19.80;60.90;;;;;;5071519;28;20427;-72
2023/09/22 11:25:13;;;;;;;3.13;1.10;;;19.60;63.30;;;;;;5066458;28;20430;-73
2023/09/22 11:27:44;;;;;;;2.72;0.77;;;19.50;61.60;;;;;;5064343;28;20422;-72
2023/09/22 11:30:14;;;;;;;1.55;0.80;;;19.40;61.40;;;;;;5057537;28;20481;-74
2023/09/22 11:32:41;;;;;;;1.50;0.90;;;19.40;60.90;;;;;;5064459;28;20423;-72
2023/09/22 11:35:09;;;;;;;2.30;1.20;;;19.30;62.50;;;;;;5059409;28;20458;-73
2023/09/22 11:37:35;;;;;;;2.70;0.90;;;19.40;61.80;;;;;;5069158;28;20417;-72
2023/09/22 11:40:14;;;;;;;1.50;0.80;;;19.50;62.20;;;;;;5080908;28;20419;-74
2023/09/22 11:42:47;;;;;;;1.80;0.90;;;19.70;60.60;;;;;;5078349;28;20439;-72
2023/09/22 11:45:20;;;;;;;2.90;0.98;;;20.10;59.80;;;;;;5061209;28;20424;-74
2023/09/22 11:47:47;;;;;;;1.85;0.80;;;20.60;56.30;;;;;;5057433;28;20429;-73
2023/09/22 11:50:22;;;;;;;1.70;0.75;;;20.70;56.50;;;;;;5060409;28;20531;-73
2023/09/22 11:52:48;;;;;;;1.63;0.60;;;20.90;55.20;;;;;;5054286;28;20418;-74
2023/09/22 11:55:17;;;;;;;1.90;1.00;;;20.90;51.70;;;;;;5063121;28;20422;-73
2023/09/22 11:57:43;;;;;;;2.08;0.80;;;20.70;53.70;;;;;;5061571;28;20429;-73
2023/09/22 12:00:14;;;;;;;1.90;0.80;;;20.80;57.00;;;;;;5060830;28;20425;-73
2023/09/22 12:02:41;;;;;;;1.90;0.80;;;21.10;52.50;;;;;;5069217;28;20513;-72
2023/09/22 12:05:09;;;;;;;1.40;0.60;;;21.10;50.40;;;;;;5061180;28;20428;-74
2023/09/22 12:07:35;;;;;;;2.30;0.90;;;20.70;52.10;;;;;;5063946;28;20438;-72
2023/09/22 12:10:02;;;;;;;4.10;1.00;;;20.30;55.10;;;;;;5059640;28;20431;-72
2023/09/22 12:12:30;;;;;;;1.63;0.80;;;20.00;56.80;;;;;;5071740;28;20414;-73
2023/09/22 12:14:57;;;;;;;1.58;0.90;;;19.80;56.50;;;;;;5062270;28;20430;-74
2023/09/22 12:17:24;;;;;;;1.30;0.70;;;19.70;57.70;;;;;;5059591;28;20492;-73
2023/09/22 12:19:51;;;;;;;1.92;1.00;;;19.80;57.20;;;;;;5055906;28;20782;-72
2023/09/22 12:22:18;;;;;;;3.10;0.90;;;19.80;58.60;;;;;;5057501;28;20520;-75
2023/09/22 12:24:45;;;;;;;1.52;0.70;;;19.70;55.20;;;;;;5057836;28;20429;-72
2023/09/22 12:27:12;;;;;;;2.00;0.80;;;19.50;56.00;;;;;;5070156;28;20426;-73
2023/09/22 12:29:40;;;;;;;2.78;0.90;;;19.20;55.90;;;;;;5056077;28;20433;-74
2023/09/22 12:32:07;;;;;;;2.03;0.75;;;19.10;57.90;;;;;;5052274;28;20439;-74
2023/09/22 12:34:34;;;;;;;1.57;0.73;;;19.00;59.10;;;;;;5055073;28;20436;-75
2023/09/22 12:37:01;;;;;;;2.40;0.90;;;19.00;62.40;;;;;;5062128;28;20538;-73
2023/09/22 12:39:28;;;;;;;1.80;0.90;;;19.00;61.60;;;;;;5067570;22;20529;-78
2023/09/22 12:41:55;;;;;;;1.60;0.70;;;19.00;61.00;;;;;;5040959;28;21019;-76
2023/09/22 12:44:23;;;;;;;1.75;0.90;;;19.00;60.70;;;;;;5041162;28;20534;-76
2023/09/22 12:46:51;;;;;;;1.73;1.00;;;19.00;61.10;;;;;;5039386;28;20976;-76
2023/09/22 12:49:18;;;;;;;2.00;0.80;;;19.10;60.60;;;;;;5040396;28;20432;-76
2023/09/22 12:51:45;;;;;;;1.48;0.70;;;19.20;60.20;;;;;;5042802;28;20536;-78
2023/09/22 12:54:11;;;;;;;1.60;0.80;;;19.30;59.30;;;;;;5047019;28;20435;-76